Time;durP1;ratioP1;P1;durP2;ratioP2;P2;SDS_P1;SDS_P2;PMS_P1;PMS_P2;Temp;Humidity;BMP_temperature;BMP_pressure;BME280_temperature;BME280_humidity;BME280_pressure;Samples;Min_cycle;Max_cycle;Signal;HPM_P1;HPM_P2
2022/06/01 00:00:25;;;;;;;4.13;3.80;;;13.80;99.90;;;;;;4949129;29;20202;-68
2022/06/01 00:02:50;;;;;;;6.10;5.50;;;13.70;99.90;;;;;;4947764;29;20201;-68
2022/06/01 00:05:16;;;;;;;5.90;4.90;;;13.70;99.90;;;;;;4947007;29;20597;-68
2022/06/01 00:07:42;;;;;;;5.73;5.23;;;13.70;99.90;;;;;;4952436;29;20290;-68
2022/06/01 00:10:07;;;;;;;5.33;4.83;;;13.70;99.90;;;;;;4944002;29;20217;-68
2022/06/01 00:12:34;;;;;;;7.73;4.50;;;13.50;99.90;;;;;;4951342;29;20231;-67
2022/06/01 00:15:02;;;;;;;7.13;5.30;;;13.50;99.90;;;;;;4948463;29;20211;-68
2022/06/01 00:17:28;;;;;;;5.37;4.20;;;13.50;99.90;;;;;;4949436;29;20432;-68
2022/06/01 00:19:53;;;;;;;5.10;4.70;;;13.50;99.90;;;;;;4950186;29;21145;-67
2022/06/01 00:22:19;;;;;;;5.57;5.00;;;13.50;99.90;;;;;;4948978;29;20184;-68
2022/06/01 00:24:46;;;;;;;4.43;4.07;;;13.50;99.90;;;;;;4947267;29;20185;-68
2022/06/01 00:27:14;;;;;;;5.37;4.97;;;13.40;99.90;;;;;;4950701;28;20710;-68
2022/06/01 00:29:40;;;;;;;5.10;4.27;;;13.50;99.90;;;;;;4950710;29;20436;-68
2022/06/01 00:32:07;;;;;;;4.77;4.30;;;13.30;99.90;;;;;;4946304;29;20460;-68
2022/06/01 00:34:33;;;;;;;5.33;4.83;;;13.30;99.90;;;;;;4951564;28;20240;-68
2022/06/01 00:36:59;;;;;;;7.20;5.23;;;13.40;99.90;;;;;;4951395;29;20441;-68
2022/06/01 00:39:25;;;;;;;5.07;4.67;;;13.40;99.90;;;;;;4951543;29;20177;-68
2022/06/01 00:41:51;;;;;;;6.20;4.90;;;13.50;99.90;;;;;;4949709;28;20507;-68
2022/06/01 00:44:16;;;;;;;5.30;4.80;;;13.50;99.90;;;;;;4952034;28;20479;-68
2022/06/01 00:46:42;;;;;;;5.47;5.00;;;13.40;99.90;;;;;;4952479;29;20177;-68
2022/06/01 00:49:17;;;;;;;5.70;4.27;;;13.30;99.90;;;;;;4942934;29;20559;-68
2022/06/01 00:51:43;;;;;;;5.20;4.83;;;13.30;99.90;;;;;;4949601;29;20636;-68
2022/06/01 00:54:10;;;;;;;5.07;4.60;;;13.20;99.90;;;;;;4951769;29;20472;-68
2022/06/01 00:56:48;;;;;;;5.10;4.80;;;13.20;99.90;;;;;;4952676;29;20482;-68
2022/06/01 00:59:19;;;;;;;5.00;4.63;;;13.10;99.90;;;;;;4952069;29;20428;-68
2022/06/01 01:01:46;;;;;;;7.87;4.77;;;13.00;99.90;;;;;;4951097;29;20555;-68
2022/06/01 01:04:12;;;;;;;5.33;4.50;;;13.00;99.90;;;;;;4951937;29;20918;-68
2022/06/01 01:06:41;;;;;;;5.27;4.77;;;13.00;99.90;;;;;;4946368;29;20469;-69
2022/06/01 01:09:08;;;;;;;5.97;5.33;;;13.00;99.90;;;;;;4950603;29;20767;-68
2022/06/01 01:11:33;;;;;;;5.40;4.90;;;12.90;99.90;;;;;;4950561;28;20464;-68
2022/06/01 01:14:00;;;;;;;5.13;4.63;;;12.90;99.90;;;;;;4951890;29;20443;-68
2022/06/01 01:16:27;;;;;;;4.93;4.60;;;12.80;99.90;;;;;;4950246;29;20586;-68
2022/06/01 01:18:54;;;;;;;5.70;4.30;;;12.90;99.90;;;;;;4951606;29;21084;-68
2022/06/01 01:21:46;;;;;;;7.17;5.20;;;12.90;99.90;;;;;;4947537;28;20859;-69
2022/06/01 01:24:22;;;;;;;5.20;4.67;;;13.00;99.90;;;;;;4950691;29;20436;-68
2022/06/01 01:26:50;;;;;;;4.80;4.30;;;13.00;99.90;;;;;;4950786;29;20440;-68
2022/06/01 01:29:29;;;;;;;5.43;4.93;;;13.10;99.90;;;;;;4951921;29;20436;-68
2022/06/01 01:31:54;;;;;;;7.27;5.07;;;13.10;99.90;;;;;;4949090;28;20943;-68
2022/06/01 01:34:20;;;;;;;5.07;4.50;;;13.20;99.90;;;;;;4951981;29;20443;-68
2022/06/01 01:36:50;;;;;;;5.17;4.70;;;13.30;99.90;;;;;;4950801;29;20209;-69
2022/06/01 01:39:17;;;;;;;4.90;4.40;;;13.20;99.90;;;;;;4950371;29;20187;-68
2022/06/01 01:41:51;;;;;;;4.67;4.37;;;13.00;99.90;;;;;;4948406;29;21105;-69
2022/06/01 01:44:41;;;;;;;4.63;4.33;;;13.00;99.90;;;;;;4951799;29;20447;-68
2022/06/01 01:47:07;;;;;;;6.20;4.80;;;13.00;99.90;;;;;;4946957;29;20433;-68
2022/06/01 01:49:34;;;;;;;4.63;4.33;;;12.90;99.90;;;;;;4947545;29;20491;-67
2022/06/01 01:52:03;;;;;;;6.37;5.23;;;12.80;99.90;;;;;;4949523;29;20200;-67
2022/06/01 01:54:42;;;;;;;5.43;4.93;;;12.80;99.90;;;;;;4951263;28;20522;-68
2022/06/01 01:57:33;;;;;;;4.50;4.20;;;12.80;99.90;;;;;;4954964;29;20449;-68
2022/06/01 02:00:17;;;;;;;4.27;3.90;;;12.80;99.90;;;;;;4955017;29;20534;-68
2022/06/01 02:02:58;;;;;;;5.10;4.60;;;12.70;99.90;;;;;;4952898;29;20507;-68
2022/06/01 02:08:30;;;;;;;4.87;4.47;;;12.50;99.90;;;;;;4948006;29;20427;-68
2022/06/01 02:14:00;;;;;;;5.07;4.43;;;12.50;99.90;;;;;;4953812;28;20479;-68
2022/06/01 02:16:31;;;;;;;4.87;4.57;;;12.40;99.90;;;;;;4947150;29;20463;-68
2022/06/01 02:19:00;;;;;;;4.40;4.00;;;12.40;99.90;;;;;;4953507;29;20506;-68
2022/06/01 02:21:27;;;;;;;5.00;4.60;;;12.40;99.90;;;;;;4951493;29;20463;-68
2022/06/01 02:23:56;;;;;;;4.63;4.20;;;12.40;99.90;;;;;;4953821;28;20451;-68
2022/06/01 02:26:21;;;;;;;5.40;5.00;;;12.40;99.90;;;;;;4953304;29;20454;-67
2022/06/01 02:28:49;;;;;;;5.47;4.40;;;12.30;99.90;;;;;;4953833;29;20882;-68
2022/06/01 02:31:17;;;;;;;4.93;4.43;;;12.30;99.90;;;;;;4946151;28;20215;-68
2022/06/01 02:33:45;;;;;;;5.03;4.73;;;12.30;99.90;;;;;;4951960;29;20523;-68
2022/06/01 02:36:14;;;;;;;4.83;4.43;;;12.20;99.90;;;;;;4953669;29;20832;-68
2022/06/01 02:38:44;;;;;;;4.80;4.50;;;12.20;99.90;;;;;;4954477;29;20440;-68
2022/06/01 02:42:25;;;;;;;9.40;4.90;;;12.20;99.90;;;;;;4952436;28;20464;-68
2022/06/01 02:43:56;;;;;;;5.50;5.10;;;12.10;99.90;;;;;;4953136;29;20804;-68
2022/06/01 02:46:22;;;;;;;5.30;4.67;;;12.10;99.90;;;;;;4953714;29;20447;-68
2022/06/01 02:48:47;;;;;;;6.60;4.60;;;12.20;99.90;;;;;;4953753;29;20223;-68
2022/06/01 02:51:14;;;;;;;4.40;4.00;;;12.20;99.90;;;;;;4951713;29;20978;-68
2022/06/01 02:53:39;;;;;;;5.50;5.00;;;12.10;99.90;;;;;;4953461;29;20177;-68
2022/06/01 02:56:05;;;;;;;4.37;4.07;;;12.20;99.90;;;;;;4951865;29;20554;-68
2022/06/01 02:58:31;;;;;;;5.23;4.40;;;12.20;99.90;;;;;;4953094;29;20169;-67
2022/06/01 03:00:58;;;;;;;5.33;4.90;;;12.10;99.90;;;;;;4951894;29;20497;-68
2022/06/01 03:03:25;;;;;;;4.73;4.33;;;12.10;99.90;;;;;;4953672;29;20184;-68
2022/06/01 03:05:50;;;;;;;4.40;4.10;;;12.10;99.90;;;;;;4951536;28;20506;-68
2022/06/01 03:08:16;;;;;;;6.13;4.70;;;12.10;99.90;;;;;;4954423;29;20525;-68
2022/06/01 03:10:44;;;;;;;5.07;4.67;;;12.10;99.90;;;;;;4953932;28;20599;-68
2022/06/01 03:13:10;;;;;;;5.13;4.73;;;12.10;99.90;;;;;;4952705;29;20185;-68
2022/06/01 03:15:36;;;;;;;5.10;4.50;;;12.00;99.90;;;;;;4954028;29;20464;-68
2022/06/01 03:18:02;;;;;;;5.00;4.70;;;11.90;99.90;;;;;;4953605;28;20436;-68
2022/06/01 03:20:28;;;;;;;4.90;4.50;;;12.00;99.90;;;;;;4952631;28;20260;-68
2022/06/01 03:22:54;;;;;;;5.13;4.63;;;12.00;99.90;;;;;;4952754;29;20182;-68
2022/06/01 03:25:24;;;;;;;5.13;4.73;;;11.80;99.90;;;;;;4954640;29;20451;-68
2022/06/01 03:27:54;;;;;;;5.17;4.70;;;11.80;99.90;;;;;;4952858;29;20444;-68
2022/06/01 03:30:21;;;;;;;6.10;5.57;;;11.70;99.90;;;;;;4952998;29;20515;-68
2022/06/01 03:32:47;;;;;;;6.83;5.00;;;11.70;99.90;;;;;;4951733;29;20940;-68
2022/06/01 03:35:15;;;;;;;4.80;4.50;;;11.80;99.90;;;;;;4953255;28;20475;-68
2022/06/01 03:37:41;;;;;;;4.80;4.47;;;11.80;99.90;;;;;;4951659;29;20436;-68
2022/06/01 03:40:07;;;;;;;5.53;5.13;;;11.80;99.90;;;;;;4951754;29;20876;-68
2022/06/01 03:42:33;;;;;;;5.20;4.80;;;11.70;99.90;;;;;;4953462;29;20173;-68
2022/06/01 03:47:44;;;;;;;5.40;4.97;;;11.90;99.90;;;;;;4949696;29;20501;-68
2022/06/01 03:50:11;;;;;;;4.83;4.47;;;11.80;99.90;;;;;;4950865;29;21150;-68
2022/06/01 03:52:38;;;;;;;4.57;4.17;;;11.80;99.90;;;;;;4951912;29;20527;-68
2022/06/01 03:55:08;;;;;;;5.37;4.87;;;11.80;99.90;;;;;;4953347;28;20471;-68
2022/06/01 03:57:34;;;;;;;5.23;4.83;;;11.80;99.90;;;;;;4951387;29;20432;-67
2022/06/01 03:59:59;;;;;;;5.10;4.60;;;11.90;99.90;;;;;;4950613;29;21013;-68
2022/06/01 04:02:25;;;;;;;6.10;4.93;;;11.90;99.90;;;;;;4951615;29;20436;-69
2022/06/01 04:04:51;;;;;;;5.73;5.20;;;11.90;99.90;;;;;;4950641;29;20209;-69
2022/06/01 04:07:16;;;;;;;7.83;5.50;;;12.00;99.90;;;;;;4952281;29;20681;-68
2022/06/01 04:09:42;;;;;;;5.20;4.70;;;12.10;99.90;;;;;;4951331;29;20643;-68
2022/06/01 04:12:07;;;;;;;5.60;5.17;;;12.30;99.90;;;;;;4952687;29;20204;-68
2022/06/01 04:14:33;;;;;;;5.30;4.80;;;12.40;99.90;;;;;;4952749;29;20550;-68
2022/06/01 04:16:58;;;;;;;5.20;4.70;;;12.40;99.90;;;;;;4952335;28;20212;-67
2022/06/01 04:19:24;;;;;;;4.97;4.57;;;12.50;99.90;;;;;;4952320;29;20248;-68
2022/06/01 04:21:52;;;;;;;6.20;5.70;;;12.70;99.90;;;;;;4950249;28;20705;-68
2022/06/01 04:24:20;;;;;;;5.40;4.90;;;12.70;99.90;;;;;;4951855;29;20185;-68
2022/06/01 04:26:46;;;;;;;7.00;5.00;;;12.70;99.90;;;;;;4951342;29;20495;-68
2022/06/01 04:29:13;;;;;;;6.13;5.57;;;12.70;99.90;;;;;;4950968;29;20440;-68
2022/06/01 04:31:39;;;;;;;5.60;5.20;;;12.80;99.90;;;;;;4949328;29;20284;-69
2022/06/01 04:34:04;;;;;;;5.87;5.37;;;13.00;99.90;;;;;;4950999;29;21014;-68
2022/06/01 04:36:30;;;;;;;6.03;5.63;;;13.10;99.90;;;;;;4951532;29;20213;-68
2022/06/01 04:38:56;;;;;;;5.73;5.27;;;13.30;99.90;;;;;;4952216;29;20260;-68
2022/06/01 04:41:21;;;;;;;5.97;5.50;;;13.40;99.90;;;;;;4952295;29;20197;-68
2022/06/01 04:43:47;;;;;;;10.30;5.07;;;13.40;99.90;;;;;;4953300;29;20169;-68
2022/06/01 04:46:12;;;;;;;5.80;5.40;;;13.60;99.90;;;;;;4952599;29;20185;-68
2022/06/01 04:48:38;;;;;;;5.83;5.33;;;13.80;99.90;;;;;;4951699;29;20176;-68
2022/06/01 04:51:04;;;;;;;5.70;5.30;;;14.00;99.90;;;;;;4952827;28;20251;-69
2022/06/01 04:53:29;;;;;;;5.63;5.13;;;14.20;99.90;;;;;;4952630;29;20280;-68
2022/06/01 04:55:55;;;;;;;8.13;5.70;;;14.30;99.90;;;;;;4951233;29;20212;-69
2022/06/01 04:58:20;;;;;;;5.47;4.97;;;14.40;99.90;;;;;;4951257;29;20184;-68
2022/06/01 05:00:46;;;;;;;6.00;5.40;;;14.40;99.90;;;;;;4951994;29;20204;-69
2022/06/01 05:03:13;;;;;;;10.57;5.30;;;14.60;99.90;;;;;;4952420;29;20191;-68
2022/06/01 05:05:39;;;;;;;5.20;4.70;;;14.80;99.90;;;;;;4948246;29;20485;-68
2022/06/01 05:08:07;;;;;;;4.93;4.63;;;15.00;99.90;;;;;;4951213;29;20436;-68
2022/06/01 05:10:33;;;;;;;5.80;5.30;;;15.20;99.90;;;;;;4950923;29;20480;-68
2022/06/01 05:12:59;;;;;;;5.23;4.83;;;15.40;99.90;;;;;;4951471;28;20970;-68
2022/06/01 05:15:24;;;;;;;5.20;4.70;;;15.60;99.90;;;;;;4950412;29;20476;-68
2022/06/01 05:17:50;;;;;;;6.43;4.47;;;15.70;99.90;;;;;;4951931;29;20175;-68
2022/06/01 05:20:16;;;;;;;4.83;4.53;;;15.90;99.90;;;;;;4949433;28;20613;-68
2022/06/01 05:22:41;;;;;;;5.07;4.57;;;16.10;99.90;;;;;;4950563;28;20180;-68
2022/06/01 05:25:09;;;;;;;4.40;3.90;;;16.10;99.90;;;;;;4951747;29;20651;-68
2022/06/01 05:27:34;;;;;;;4.73;4.27;;;16.20;99.90;;;;;;4951120;29;20646;-68
2022/06/01 05:30:00;;;;;;;4.73;4.33;;;16.30;99.90;;;;;;4952231;28;20436;-68
2022/06/01 05:32:26;;;;;;;5.20;4.70;;;16.50;99.90;;;;;;4955992;29;20176;-68
2022/06/01 05:34:52;;;;;;;4.80;4.30;;;16.70;99.90;;;;;;4956161;29;20416;-68
2022/06/01 05:37:17;;;;;;;4.50;4.10;;;16.80;99.90;;;;;;4954886;29;20455;-68
2022/06/01 05:39:43;;;;;;;4.70;4.40;;;16.80;99.90;;;;;;4952503;29;20184;-68
2022/06/01 05:42:08;;;;;;;4.63;4.23;;;16.90;99.90;;;;;;4953756;29;20200;-69
2022/06/01 05:44:34;;;;;;;4.03;3.77;;;17.00;99.90;;;;;;4954014;29;20574;-69
2022/06/01 05:47:03;;;;;;;5.40;4.90;;;17.10;99.90;;;;;;4952446;28;20192;-68
2022/06/01 05:49:29;;;;;;;4.07;3.77;;;17.20;99.90;;;;;;4952961;29;20263;-68
2022/06/01 05:51:55;;;;;;;5.90;3.90;;;17.20;99.90;;;;;;4954129;28;20530;-69
2022/06/01 05:54:21;;;;;;;7.30;4.40;;;17.10;99.90;;;;;;4953859;29;20938;-68
2022/06/01 05:56:46;;;;;;;7.93;4.63;;;17.30;99.90;;;;;;4952342;29;20216;-68
2022/06/01 05:59:12;;;;;;;4.23;3.90;;;17.40;99.90;;;;;;4952773;28;20177;-68
2022/06/01 06:01:39;;;;;;;4.23;3.90;;;17.50;99.90;;;;;;4952623;28;20970;-68
2022/06/01 06:04:05;;;;;;;4.70;4.40;;;17.50;99.90;;;;;;4952564;28;20510;-68
2022/06/01 06:06:30;;;;;;;4.27;3.87;;;17.40;99.90;;;;;;4954877;29;20448;-68
2022/06/01 06:09:02;;;;;;;4.27;3.97;;;17.40;99.90;;;;;;4950075;29;20436;-69
2022/06/01 06:11:31;;;;;;;3.90;3.60;;;17.70;99.90;;;;;;4916753;28;1034380;-68
2022/06/01 06:14:01;;;;;;;4.03;3.80;;;17.90;99.90;;;;;;4954222;29;20208;-68
2022/06/01 06:16:31;;;;;;;4.50;4.10;;;17.90;99.90;;;;;;4952464;29;20480;-67
2022/06/01 06:18:57;;;;;;;4.67;3.57;;;18.00;99.90;;;;;;4954679;28;20436;-67
2022/06/01 06:21:28;;;;;;;4.20;3.80;;;18.20;99.90;;;;;;4954179;28;20460;-67
2022/06/01 06:23:58;;;;;;;5.10;4.70;;;18.40;99.90;;;;;;4954037;29;20181;-67
2022/06/01 06:26:24;;;;;;;4.70;4.30;;;18.50;99.90;;;;;;4948157;29;20515;-68
2022/06/01 06:28:50;;;;;;;4.60;4.20;;;18.60;99.90;;;;;;4947456;28;20791;-69
2022/06/01 06:31:15;;;;;;;4.57;3.83;;;18.70;99.90;;;;;;4948124;29;20205;-68
2022/06/01 06:33:40;;;;;;;6.20;3.97;;;18.90;99.90;;;;;;4950642;29;20188;-68
2022/06/01 06:36:07;;;;;;;4.30;3.97;;;18.90;99.90;;;;;;4951777;29;20199;-68
2022/06/01 06:38:36;;;;;;;3.63;3.43;;;18.90;99.90;;;;;;4927169;29;20220;-69
2022/06/01 06:41:03;;;;;;;6.67;5.47;;;19.30;99.90;;;;;;4938793;28;20444;-68
2022/06/01 06:43:30;;;;;;;7.37;4.70;;;19.30;99.90;;;;;;4953245;28;20476;-68
2022/06/01 06:46:00;;;;;;;5.10;3.73;;;19.20;99.90;;;;;;4954890;29;20949;-68
2022/06/01 06:48:26;;;;;;;6.27;3.20;;;19.10;99.90;;;;;;4951298;29;20437;-68
2022/06/01 06:50:52;;;;;;;4.50;3.83;;;19.30;99.90;;;;;;4955131;28;20468;-68
2022/06/01 06:53:18;;;;;;;4.03;3.63;;;19.30;99.90;;;;;;4948949;28;20487;-68
2022/06/01 06:55:44;;;;;;;4.43;4.03;;;19.20;99.90;;;;;;4955133;29;20587;-68
2022/06/01 06:58:10;;;;;;;4.47;3.77;;;19.20;99.90;;;;;;4948066;29;20444;-68
2022/06/01 07:00:36;;;;;;;4.03;3.70;;;19.40;99.90;;;;;;4952902;28;20456;-68
2022/06/01 07:03:03;;;;;;;4.33;3.93;;;19.40;99.90;;;;;;4954052;29;20531;-67
2022/06/01 07:08:12;;;;;;;4.40;3.80;;;19.70;99.90;;;;;;4946179;28;20498;-68
2022/06/01 07:10:38;;;;;;;5.77;3.90;;;19.70;99.90;;;;;;4954263;28;20476;-68
2022/06/01 07:13:03;;;;;;;6.93;3.83;;;19.70;99.90;;;;;;4953560;28;20184;-67
2022/06/01 07:15:29;;;;;;;4.43;4.03;;;20.00;99.90;;;;;;4952924;29;20200;-68
2022/06/01 07:17:54;;;;;;;5.37;3.80;;;20.20;99.90;;;;;;4938109;28;20185;-67
2022/06/01 07:20:21;;;;;;;4.70;3.80;;;20.50;99.90;;;;;;4946980;29;20248;-68
2022/06/01 07:22:47;;;;;;;4.80;4.40;;;20.80;99.90;;;;;;4949315;29;20550;-68
2022/06/01 07:25:12;;;;;;;3.33;3.03;;;21.00;99.90;;;;;;4949195;29;20455;-68
2022/06/01 07:27:38;;;;;;;3.30;3.10;;;20.90;99.90;;;;;;4941283;29;20729;-68
2022/06/01 07:30:09;;;;;;;5.10;3.60;;;21.00;99.90;;;;;;4948290;29;20240;-68
2022/06/01 07:32:34;;;;;;;4.73;3.37;;;21.20;99.90;;;;;;4944339;29;20212;-68
2022/06/01 07:35:02;;;;;;;3.70;3.43;;;21.10;99.90;;;;;;4948058;29;20830;-68
2022/06/01 07:43:08;;;;;;;4.03;3.73;;;21.00;99.90;;;;;;4945779;28;20554;-68
2022/06/01 07:45:38;;;;;;;4.13;3.73;;;21.30;99.90;;;;;;4950027;29;20502;-68
2022/06/01 07:48:06;;;;;;;4.60;3.53;;;21.40;99.90;;;;;;4942628;28;21088;-69
2022/06/01 07:50:32;;;;;;;4.07;3.77;;;21.70;99.90;;;;;;4950175;29;20833;-68
2022/06/01 07:52:59;;;;;;;3.80;3.50;;;21.70;99.90;;;;;;4950025;28;20957;-68
2022/06/01 07:55:25;;;;;;;2.83;2.63;;;22.00;99.90;;;;;;4950374;29;20823;-68
2022/06/01 07:57:51;;;;;;;5.17;3.20;;;22.20;96.80;;;;;;4941533;29;20531;-68
2022/06/01 08:00:17;;;;;;;3.57;3.30;;;22.50;96.30;;;;;;4950700;29;20964;-68
2022/06/01 08:02:43;;;;;;;4.20;3.07;;;22.50;94.80;;;;;;4951270;29;20228;-69
2022/06/01 08:05:11;;;;;;;3.70;3.40;;;22.60;94.60;;;;;;4952102;29;20495;-68
2022/06/01 08:07:36;;;;;;;3.63;2.80;;;23.00;92.30;;;;;;4939333;29;20193;-68
2022/06/01 08:10:03;;;;;;;5.60;2.83;;;23.10;91.40;;;;;;4949002;28;20518;-68
2022/06/01 08:15:13;;;;;;;2.10;2.00;;;23.20;82.90;;;;;;4946138;29;20518;-68
2022/06/01 08:17:41;;;;;;;2.80;2.13;;;23.80;77.70;;;;;;4940192;29;20977;-68
2022/06/01 08:20:07;;;;;;;2.40;2.20;;;23.90;76.30;;;;;;4950547;28;20447;-68
2022/06/01 08:22:33;;;;;;;4.33;2.63;;;23.90;74.80;;;;;;4951815;29;20435;-68
2022/06/01 08:24:58;;;;;;;3.60;2.20;;;24.00;74.60;;;;;;4949517;29;20440;-68
2022/06/01 08:27:24;;;;;;;2.53;2.37;;;23.90;72.60;;;;;;4950361;29;20611;-68
2022/06/01 08:29:49;;;;;;;5.70;2.57;;;23.80;72.80;;;;;;4943934;29;20185;-68
2022/06/01 08:32:15;;;;;;;3.10;2.40;;;23.90;72.60;;;;;;4952354;29;20185;-68
2022/06/01 08:34:40;;;;;;;2.60;2.40;;;23.90;72.20;;;;;;4951394;29;20269;-68
2022/06/01 08:37:06;;;;;;;2.97;2.57;;;24.20;71.50;;;;;;4946573;29;20221;-68
2022/06/01 08:39:31;;;;;;;3.20;2.80;;;24.30;72.30;;;;;;4947013;29;20209;-69
2022/06/01 08:42:00;;;;;;;3.30;3.00;;;24.50;72.20;;;;;;4950336;29;20737;-69
2022/06/01 08:44:30;;;;;;;2.60;2.10;;;24.80;72.20;;;;;;4948522;29;20177;-68
2022/06/01 08:47:01;;;;;;;2.90;2.23;;;24.90;68.80;;;;;;4948352;28;20444;-68
2022/06/01 08:49:29;;;;;;;2.70;2.50;;;24.80;68.70;;;;;;4947708;29;20513;-69
2022/06/01 08:51:55;;;;;;;3.73;2.73;;;24.90;69.00;;;;;;4950250;29;20464;-69
2022/06/01 08:54:22;;;;;;;2.90;2.63;;;24.60;68.60;;;;;;4949386;29;20447;-68
2022/06/01 08:56:51;;;;;;;2.80;2.20;;;24.60;67.60;;;;;;4948010;28;20299;-68
2022/06/01 08:59:34;;;;;;;2.97;2.70;;;24.90;64.50;;;;;;4949497;29;20443;-68
2022/06/01 09:02:37;;;;;;;2.53;2.33;;;25.40;63.50;;;;;;4948729;29;20471;-68
2022/06/01 09:05:11;;;;;;;2.47;2.30;;;25.70;62.10;;;;;;4950670;29;20989;-68
2022/06/01 09:07:51;;;;;;;3.03;2.47;;;25.90;60.70;;;;;;4947130;29;20825;-68
2022/06/01 09:10:42;;;;;;;2.17;2.07;;;26.10;59.50;;;;;;4951252;28;20472;-67
2022/06/01 09:13:12;;;;;;;1.83;1.73;;;25.90;58.70;;;;;;4949865;28;20454;-68
2022/06/01 09:15:44;;;;;;;3.33;2.13;;;25.90;59.30;;;;;;4951100;29;20507;-68
2022/06/01 09:18:10;;;;;;;3.00;2.00;;;25.30;57.00;;;;;;4947326;28;20473;-67
2022/06/01 09:23:20;;;;;;;3.10;2.90;;;24.90;56.00;;;;;;4950020;29;20231;-68
2022/06/01 09:25:52;;;;;;;1.97;1.87;;;25.70;56.50;;;;;;4944599;29;20444;-67
2022/06/01 09:28:22;;;;;;;2.60;2.40;;;25.50;55.40;;;;;;4946483;29;20480;-67
2022/06/01 09:30:59;;;;;;;1.70;1.60;;;25.50;55.90;;;;;;4950568;29;20464;-68
2022/06/01 09:33:27;;;;;;;2.97;2.67;;;25.20;55.20;;;;;;4945420;29;20564;-68
2022/06/01 09:35:58;;;;;;;2.53;2.00;;;25.20;54.00;;;;;;4952409;29;21118;-68
2022/06/01 09:38:58;;;;;;;2.33;2.20;;;25.10;54.20;;;;;;4945900;29;20503;-68
2022/06/01 09:41:24;;;;;;;2.20;2.10;;;25.00;54.30;;;;;;4905554;28;20604;-68
2022/06/01 09:43:55;;;;;;;2.07;1.90;;;24.80;54.40;;;;;;4948053;28;20531;-67
2022/06/01 09:46:33;;;;;;;2.70;1.70;;;24.80;54.40;;;;;;4951220;28;20250;-67
2022/06/01 09:49:01;;;;;;;2.50;1.83;;;25.10;54.50;;;;;;4946716;29;20436;-68
2022/06/01 09:51:27;;;;;;;2.10;1.90;;;24.90;53.90;;;;;;4949919;29;20479;-67
2022/06/01 09:54:08;;;;;;;2.20;2.10;;;24.90;53.90;;;;;;4951163;28;20440;-67
2022/06/01 09:56:47;;;;;;;2.97;1.70;;;25.10;53.70;;;;;;4950889;29;20231;-68
2022/06/01 10:08:31;;;;;;;2.93;2.63;;;26.20;51.70;;;;;;4945090;29;20443;-67
2022/06/01 10:11:20;;;;;;;4.17;3.40;;;26.30;51.30;;;;;;4942675;29;20538;-67
2022/06/01 10:14:00;;;;;;;2.30;1.47;;;26.20;51.10;;;;;;4946719;28;20448;-66
2022/06/01 10:16:49;;;;;;;1.77;1.63;;;25.90;50.90;;;;;;4953832;28;20802;-66
2022/06/01 10:19:20;;;;;;;2.10;1.80;;;25.80;51.10;;;;;;4950931;28;21089;-68
2022/06/01 10:22:07;;;;;;;2.23;2.00;;;26.20;50.30;;;;;;4956660;28;20455;-69
2022/06/01 10:24:40;;;;;;;2.23;1.77;;;26.70;49.80;;;;;;4937678;29;20417;-69
2022/06/01 10:27:06;;;;;;;3.60;2.10;;;27.10;47.40;;;;;;4937392;29;20431;-69
2022/06/01 10:29:37;;;;;;;3.00;2.63;;;28.00;46.60;;;;;;4955815;29;20456;-69
2022/06/01 10:32:09;;;;;;;2.73;1.80;;;28.60;46.30;;;;;;4956592;28;20576;-69
2022/06/01 10:34:48;;;;;;;2.70;1.60;;;29.10;45.50;;;;;;4956553;29;20424;-69
2022/06/01 10:37:33;;;;;;;2.00;1.90;;;29.60;44.20;;;;;;4953449;29;20466;-69
2022/06/01 10:40:15;;;;;;;2.43;1.90;;;29.20;43.30;;;;;;4955513;29;20416;-69
2022/06/01 10:45:34;;;;;;;3.00;2.60;;;29.00;42.30;;;;;;4956665;29;20435;-69
2022/06/01 10:48:17;;;;;;;1.83;1.73;;;29.70;42.70;;;;;;4952571;29;20424;-70
2022/06/01 10:50:53;;;;;;;1.77;1.50;;;30.90;40.90;;;;;;4956273;28;20444;-69
2022/06/01 10:53:33;;;;;;;2.00;1.90;;;31.90;39.50;;;;;;4956373;29;20478;-70
2022/06/01 10:55:59;;;;;;;4.37;3.03;;;31.50;40.20;;;;;;4956156;29;20452;-69
2022/06/01 10:58:26;;;;;;;2.13;1.93;;;31.70;39.20;;;;;;4951844;29;20840;-69
2022/06/01 11:01:36;;;;;;;2.90;2.70;;;32.00;38.30;;;;;;4956124;29;20189;-70
2022/06/01 11:04:20;;;;;;;4.30;1.70;;;33.40;37.10;;;;;;4926761;29;20440;-70
2022/06/01 11:07:00;;;;;;;2.20;1.70;;;33.20;35.90;;;;;;4936338;29;20413;-67
2022/06/01 11:09:32;;;;;;;2.30;2.10;;;32.30;36.40;;;;;;4954895;29;20420;-68
2022/06/01 11:12:11;;;;;;;3.40;2.00;;;32.00;35.60;;;;;;4957039;28;20439;-67
2022/06/01 11:14:39;;;;;;;2.13;1.97;;;30.70;35.80;;;;;;4975164;28;20407;-68
2022/06/01 11:17:17;;;;;;;2.53;2.40;;;30.50;35.80;;;;;;4968452;28;21010;-69
2022/06/01 11:20:16;;;;;;;2.57;2.47;;;31.90;35.50;;;;;;4955074;28;20878;-70
2022/06/01 11:22:51;;;;;;;2.30;2.10;;;31.90;35.50;;;;;;4955688;29;20810;-70
2022/06/01 11:25:23;;;;;;;1.90;1.70;;;32.70;34.80;;;;;;4955564;29;20427;-70
2022/06/01 11:28:07;;;;;;;2.10;2.00;;;33.80;34.30;;;;;;4948448;28;20479;-66
2022/06/01 11:31:20;;;;;;;1.87;1.77;;;32.90;34.40;;;;;;4951343;28;20483;-69
2022/06/01 11:34:04;;;;;;;2.47;1.90;;;31.50;34.60;;;;;;4945889;29;20491;-69
2022/06/01 11:36:44;;;;;;;2.43;2.03;;;30.70;36.10;;;;;;4949693;29;20556;-69
2022/06/01 11:39:26;;;;;;;2.60;2.40;;;29.20;36.70;;;;;;4950367;29;20448;-68
2022/06/01 11:42:03;;;;;;;1.97;1.87;;;28.20;38.00;;;;;;4951918;29;20526;-68
2022/06/01 11:44:38;;;;;;;2.00;1.90;;;27.80;38.10;;;;;;4948365;28;20444;-69
2022/06/01 11:47:15;;;;;;;2.17;1.97;;;27.80;38.50;;;;;;4949079;29;20455;-68
2022/06/01 11:49:43;;;;;;;2.17;1.93;;;27.50;38.50;;;;;;4951817;29;20850;-69
2022/06/01 11:52:20;;;;;;;2.10;2.00;;;28.50;38.10;;;;;;4952220;28;20464;-69
2022/06/01 11:55:13;;;;;;;3.27;2.20;;;29.90;36.90;;;;;;4951272;29;20448;-69
2022/06/01 11:57:49;;;;;;;2.60;2.40;;;30.00;36.70;;;;;;4947155;28;21282;-69
2022/06/01 12:00:32;;;;;;;2.43;2.17;;;32.50;35.00;;;;;;4947947;28;20812;-69
2022/06/01 12:03:30;;;;;;;2.50;2.30;;;32.20;34.00;;;;;;4951607;29;20853;-69
2022/06/01 12:06:07;;;;;;;2.27;2.00;;;33.60;34.40;;;;;;4948430;29;20437;-70
2022/06/01 12:08:54;;;;;;;2.03;1.93;;;35.40;33.10;;;;;;4948128;29;20524;-69
2022/06/01 12:11:38;;;;;;;2.90;1.70;;;36.30;31.20;;;;;;4952762;29;20510;-69
2022/06/01 12:14:22;;;;;;;2.27;2.17;;;37.40;31.10;;;;;;4950889;28;20459;-67
2022/06/01 12:17:22;;;;;;;2.57;1.93;;;37.20;30.00;;;;;;4949434;29;20476;-67
2022/06/01 12:20:08;;;;;;;2.47;2.27;;;38.20;29.10;;;;;;4949609;29;20774;-69
2022/06/01 12:28:51;;;;;;;6.60;3.40;;;34.00;30.40;;;;;;4946371;29;20531;-69
2022/06/01 12:31:37;;;;;;;2.40;2.23;;;32.10;31.90;;;;;;4951180;29;20464;-68
2022/06/01 12:34:03;;;;;;;3.03;2.80;;;31.40;32.80;;;;;;4948284;29;20495;-69
2022/06/01 12:36:37;;;;;;;4.10;2.70;;;29.40;35.10;;;;;;4953183;29;20464;-69
2022/06/01 12:39:33;;;;;;;2.43;2.00;;;28.20;36.00;;;;;;4945678;28;20476;-68
2022/06/01 12:42:03;;;;;;;2.13;1.93;;;27.40;36.80;;;;;;4948005;29;20452;-69
2022/06/01 12:44:32;;;;;;;2.77;2.57;;;27.50;37.80;;;;;;4948614;28;20823;-69
2022/06/01 12:46:58;;;;;;;1.97;1.83;;;29.40;36.60;;;;;;4948630;29;20519;-69
2022/06/01 12:49:37;;;;;;;2.17;2.07;;;29.90;36.10;;;;;;4950747;28;20450;-69
2022/06/01 12:52:10;;;;;;;2.40;1.80;;;29.60;35.60;;;;;;4951398;28;20976;-68
2022/06/01 12:54:50;;;;;;;2.40;2.30;;;28.90;36.10;;;;;;4950959;29;20467;-68
2022/06/01 12:57:30;;;;;;;2.43;2.20;;;27.60;37.50;;;;;;4946913;29;20472;-68
2022/06/01 13:00:02;;;;;;;3.43;2.43;;;27.00;39.00;;;;;;4950260;28;20451;-68
2022/06/01 13:02:32;;;;;;;3.53;2.03;;;27.50;39.00;;;;;;4948850;29;20503;-68
2022/06/01 13:04:57;;;;;;;1.90;1.80;;;28.10;38.70;;;;;;4950485;29;20491;-69
2022/06/01 13:07:30;;;;;;;2.30;2.10;;;28.60;38.50;;;;;;4946443;29;20850;-68
2022/06/01 13:10:03;;;;;;;2.17;1.90;;;29.70;37.70;;;;;;4945716;29;20234;-69
2022/06/01 13:12:31;;;;;;;2.83;2.20;;;31.00;37.10;;;;;;4945381;28;20956;-69
2022/06/01 13:15:26;;;;;;;2.47;2.27;;;32.10;35.70;;;;;;4945241;28;20802;-67
2022/06/01 13:18:00;;;;;;;2.53;2.37;;;32.20;35.00;;;;;;4929975;28;20812;-67
2022/06/01 13:20:36;;;;;;;2.10;2.00;;;31.50;35.70;;;;;;4946522;29;20472;-67
2022/06/01 13:23:09;;;;;;;2.50;2.30;;;30.00;37.10;;;;;;4944332;29;20526;-67
2022/06/01 13:25:35;;;;;;;2.60;2.40;;;29.40;38.10;;;;;;4948700;28;20786;-68
2022/06/01 13:28:01;;;;;;;3.73;2.67;;;28.60;38.90;;;;;;4945434;29;20991;-68
2022/06/01 13:30:29;;;;;;;3.40;3.20;;;27.60;39.90;;;;;;4942661;29;20468;-69
2022/06/01 13:32:57;;;;;;;2.90;2.70;;;26.90;41.60;;;;;;4946787;29;20479;-68
2022/06/01 13:35:35;;;;;;;3.20;2.70;;;26.40;41.60;;;;;;4946320;28;20483;-69
2022/06/01 13:38:04;;;;;;;3.20;2.73;;;26.30;42.80;;;;;;4939264;28;20823;-68
2022/06/01 13:40:41;;;;;;;2.93;2.73;;;27.30;41.80;;;;;;4947456;29;20451;-68
2022/06/01 13:43:10;;;;;;;4.70;2.70;;;27.90;41.00;;;;;;4948404;28;20440;-69